sensor_id;sensor_type;location;lat;lon;timestamp;P1;durP1;ratioP1;P2;durP2;ratioP2
8895;SDS011;4484;48.928;10.066;2024-01-07T00:01:03;18.20;;;11.77;;
8895;SDS011;4484;48.928;10.066;2024-01-07T00:03:34;15.00;;;11.03;;
8895;SDS011;4484;48.928;10.066;2024-01-07T00:06:01;14.83;;;11.07;;
8895;SDS011;4484;48.928;10.066;2024-01-07T00:08:28;15.93;;;11.10;;
8895;SDS011;4484;48.928;10.066;2024-01-07T00:10:54;17.33;;;12.53;;
8895;SDS011;4484;48.928;10.066;2024-01-07T00:13:23;16.33;;;11.93;;
8895;SDS011;4484;48.928;10.066;2024-01-07T00:15:50;17.53;;;11.80;;
8895;SDS011;4484;48.928;10.066;2024-01-07T00:18:16;19.07;;;11.97;;
8895;SDS011;4484;48.928;10.066;2024-01-07T00:20:44;17.67;;;11.53;;
8895;SDS011;4484;48.928;10.066;2024-01-07T00:23:11;18.97;;;11.03;;
8895;SDS011;4484;48.928;10.066;2024-01-07T00:25:37;16.13;;;11.10;;
8895;SDS011;4484;48.928;10.066;2024-01-07T00:28:04;15.33;;;11.17;;
8895;SDS011;4484;48.928;10.066;2024-01-07T00:30:31;16.27;;;11.37;;
8895;SDS011;4484;48.928;10.066;2024-01-07T00:32:59;15.53;;;10.37;;
8895;SDS011;4484;48.928;10.066;2024-01-07T00:35:26;16.07;;;11.07;;
8895;SDS011;4484;48.928;10.066;2024-01-07T00:37:52;15.63;;;11.37;;
8895;SDS011;4484;48.928;10.066;2024-01-07T00:40:23;16.07;;;10.93;;
8895;SDS011;4484;48.928;10.066;2024-01-07T00:42:50;15.63;;;10.67;;
8895;SDS011;4484;48.928;10.066;2024-01-07T00:45:17;15.50;;;10.20;;
8895;SDS011;4484;48.928;10.066;2024-01-07T00:47:45;17.73;;;10.97;;
8895;SDS011;4484;48.928;10.066;2024-01-07T00:50:12;17.40;;;10.43;;
8895;SDS011;4484;48.928;10.066;2024-01-07T00:52:38;15.77;;;10.47;;
8895;SDS011;4484;48.928;10.066;2024-01-07T00:55:08;14.47;;;10.27;;
8895;SDS011;4484;48.928;10.066;2024-01-07T00:57:35;17.43;;;11.33;;
8895;SDS011;4484;48.928;10.066;2024-01-07T01:00:05;12.77;;;9.17;;
8895;SDS011;4484;48.928;10.066;2024-01-07T01:02:33;13.80;;;10.03;;
8895;SDS011;4484;48.928;10.066;2024-01-07T01:05:00;15.80;;;10.63;;
8895;SDS011;4484;48.928;10.066;2024-01-07T01:07:27;14.60;;;10.40;;
8895;SDS011;4484;48.928;10.066;2024-01-07T01:09:54;16.43;;;11.33;;
8895;SDS011;4484;48.928;10.066;2024-01-07T01:12:21;15.73;;;11.10;;
8895;SDS011;4484;48.928;10.066;2024-01-07T01:14:47;17.90;;;10.23;;
8895;SDS011;4484;48.928;10.066;2024-01-07T01:17:14;13.17;;;9.07;;
8895;SDS011;4484;48.928;10.066;2024-01-07T01:19:41;15.13;;;10.17;;
8895;SDS011;4484;48.928;10.066;2024-01-07T01:22:08;13.40;;;10.00;;
8895;SDS011;4484;48.928;10.066;2024-01-07T01:24:35;14.03;;;9.57;;
8895;SDS011;4484;48.928;10.066;2024-01-07T01:27:02;13.43;;;9.73;;
8895;SDS011;4484;48.928;10.066;2024-01-07T01:29:29;17.33;;;11.50;;
8895;SDS011;4484;48.928;10.066;2024-01-07T01:31:56;17.20;;;11.93;;
8895;SDS011;4484;48.928;10.066;2024-01-07T01:34:23;14.07;;;9.87;;
8895;SDS011;4484;48.928;10.066;2024-01-07T01:36:50;20.43;;;11.47;;
8895;SDS011;4484;48.928;10.066;2024-01-07T01:39:17;15.07;;;9.63;;
8895;SDS011;4484;48.928;10.066;2024-01-07T01:41:44;19.53;;;11.33;;
8895;SDS011;4484;48.928;10.066;2024-01-07T01:44:11;14.60;;;9.40;;
8895;SDS011;4484;48.928;10.066;2024-01-07T01:46:38;13.10;;;9.30;;
8895;SDS011;4484;48.928;10.066;2024-01-07T01:49:05;12.23;;;9.70;;
8895;SDS011;4484;48.928;10.066;2024-01-07T01:51:33;16.97;;;10.20;;
8895;SDS011;4484;48.928;10.066;2024-01-07T01:54:01;14.73;;;10.43;;
8895;SDS011;4484;48.928;10.066;2024-01-07T01:56:29;14.57;;;11.60;;
8895;SDS011;4484;48.928;10.066;2024-01-07T01:58:56;16.10;;;10.60;;
8895;SDS011;4484;48.928;10.066;2024-01-07T02:01:23;13.50;;;9.97;;
8895;SDS011;4484;48.928;10.066;2024-01-07T02:03:52;16.43;;;10.03;;
8895;SDS011;4484;48.928;10.066;2024-01-07T02:06:20;15.23;;;9.57;;
8895;SDS011;4484;48.928;10.066;2024-01-07T02:08:48;14.23;;;11.10;;
8895;SDS011;4484;48.928;10.066;2024-01-07T02:13:43;16.97;;;10.93;;
8895;SDS011;4484;48.928;10.066;2024-01-07T02:16:10;14.50;;;9.87;;
8895;SDS011;4484;48.928;10.066;2024-01-07T02:18:41;13.63;;;9.97;;
8895;SDS011;4484;48.928;10.066;2024-01-07T02:21:09;16.63;;;10.57;;
8895;SDS011;4484;48.928;10.066;2024-01-07T02:23:36;15.03;;;10.80;;
8895;SDS011;4484;48.928;10.066;2024-01-07T02:26:03;17.53;;;10.67;;
8895;SDS011;4484;48.928;10.066;2024-01-07T02:28:31;15.83;;;11.53;;
8895;SDS011;4484;48.928;10.066;2024-01-07T02:30:59;15.47;;;11.00;;
8895;SDS011;4484;48.928;10.066;2024-01-07T02:33:26;16.00;;;10.53;;
8895;SDS011;4484;48.928;10.066;2024-01-07T02:35:54;19.97;;;12.17;;
8895;SDS011;4484;48.928;10.066;2024-01-07T02:38:22;16.23;;;10.53;;
8895;SDS011;4484;48.928;10.066;2024-01-07T02:40:49;14.87;;;10.07;;
8895;SDS011;4484;48.928;10.066;2024-01-07T02:43:16;16.87;;;11.07;;
8895;SDS011;4484;48.928;10.066;2024-01-07T02:45:43;16.10;;;10.83;;
8895;SDS011;4484;48.928;10.066;2024-01-07T02:48:10;16.10;;;10.93;;
8895;SDS011;4484;48.928;10.066;2024-01-07T02:50:37;13.00;;;10.07;;
8895;SDS011;4484;48.928;10.066;2024-01-07T02:53:03;15.60;;;10.30;;
8895;SDS011;4484;48.928;10.066;2024-01-07T02:55:31;17.90;;;11.13;;
8895;SDS011;4484;48.928;10.066;2024-01-07T02:57:57;13.37;;;9.47;;
8895;SDS011;4484;48.928;10.066;2024-01-07T03:00:24;15.47;;;10.70;;
8895;SDS011;4484;48.928;10.066;2024-01-07T03:02:51;15.30;;;9.27;;
8895;SDS011;4484;48.928;10.066;2024-01-07T03:05:19;15.50;;;10.40;;
8895;SDS011;4484;48.928;10.066;2024-01-07T03:07:46;17.80;;;11.13;;
8895;SDS011;4484;48.928;10.066;2024-01-07T03:10:13;15.30;;;11.03;;
8895;SDS011;4484;48.928;10.066;2024-01-07T03:12:40;13.80;;;10.30;;
8895;SDS011;4484;48.928;10.066;2024-01-07T03:15:07;17.07;;;11.50;;
8895;SDS011;4484;48.928;10.066;2024-01-07T03:17:35;13.10;;;9.33;;
8895;SDS011;4484;48.928;10.066;2024-01-07T03:20:02;12.97;;;10.27;;
8895;SDS011;4484;48.928;10.066;2024-01-07T03:22:29;15.13;;;10.90;;
8895;SDS011;4484;48.928;10.066;2024-01-07T03:24:56;16.50;;;11.20;;
8895;SDS011;4484;48.928;10.066;2024-01-07T03:27:23;14.77;;;10.27;;
8895;SDS011;4484;48.928;10.066;2024-01-07T03:29:50;14.93;;;10.20;;
8895;SDS011;4484;48.928;10.066;2024-01-07T03:32:16;16.10;;;10.37;;
8895;SDS011;4484;48.928;10.066;2024-01-07T03:34:44;16.30;;;11.20;;
8895;SDS011;4484;48.928;10.066;2024-01-07T03:37:11;12.77;;;9.23;;
8895;SDS011;4484;48.928;10.066;2024-01-07T03:39:38;15.53;;;9.60;;
8895;SDS011;4484;48.928;10.066;2024-01-07T03:42:05;12.37;;;9.33;;
8895;SDS011;4484;48.928;10.066;2024-01-07T03:44:37;16.27;;;10.57;;
8895;SDS011;4484;48.928;10.066;2024-01-07T03:47:05;13.83;;;9.50;;
8895;SDS011;4484;48.928;10.066;2024-01-07T03:49:32;12.87;;;10.07;;
8895;SDS011;4484;48.928;10.066;2024-01-07T03:51:59;18.63;;;11.27;;
8895;SDS011;4484;48.928;10.066;2024-01-07T03:54:26;12.50;;;9.50;;
8895;SDS011;4484;48.928;10.066;2024-01-07T03:56:53;16.60;;;10.73;;
8895;SDS011;4484;48.928;10.066;2024-01-07T03:59:20;20.20;;;10.87;;
8895;SDS011;4484;48.928;10.066;2024-01-07T04:01:49;15.20;;;9.70;;
8895;SDS011;4484;48.928;10.066;2024-01-07T04:04:16;13.00;;;10.00;;
8895;SDS011;4484;48.928;10.066;2024-01-07T04:06:43;16.43;;;10.17;;
8895;SDS011;4484;48.928;10.066;2024-01-07T04:09:10;18.50;;;11.73;;
8895;SDS011;4484;48.928;10.066;2024-01-07T04:11:40;15.50;;;11.17;;
8895;SDS011;4484;48.928;10.066;2024-01-07T04:14:08;18.00;;;11.57;;
8895;SDS011;4484;48.928;10.066;2024-01-07T04:16:35;13.53;;;10.20;;
8895;SDS011;4484;48.928;10.066;2024-01-07T04:19:02;18.10;;;11.40;;
8895;SDS011;4484;48.928;10.066;2024-01-07T04:21:29;17.50;;;11.77;;
8895;SDS011;4484;48.928;10.066;2024-01-07T04:23:56;13.37;;;9.63;;
8895;SDS011;4484;48.928;10.066;2024-01-07T04:26:23;14.80;;;9.90;;
8895;SDS011;4484;48.928;10.066;2024-01-07T04:28:50;12.83;;;9.63;;
8895;SDS011;4484;48.928;10.066;2024-01-07T04:31:17;14.63;;;11.07;;
8895;SDS011;4484;48.928;10.066;2024-01-07T04:33:44;15.93;;;10.67;;
8895;SDS011;4484;48.928;10.066;2024-01-07T04:36:11;13.33;;;9.30;;
8895;SDS011;4484;48.928;10.066;2024-01-07T04:38:38;15.77;;;10.27;;
8895;SDS011;4484;48.928;10.066;2024-01-07T04:41:05;14.17;;;9.90;;
8895;SDS011;4484;48.928;10.066;2024-01-07T04:43:34;18.17;;;11.47;;
8895;SDS011;4484;48.928;10.066;2024-01-07T04:46:01;16.60;;;11.20;;
8895;SDS011;4484;48.928;10.066;2024-01-07T04:48:29;15.60;;;11.10;;
8895;SDS011;4484;48.928;10.066;2024-01-07T04:50:56;17.53;;;10.73;;
8895;SDS011;4484;48.928;10.066;2024-01-07T04:53:23;16.80;;;11.07;;
8895;SDS011;4484;48.928;10.066;2024-01-07T04:55:49;15.90;;;10.57;;
8895;SDS011;4484;48.928;10.066;2024-01-07T04:58:16;16.43;;;10.77;;
8895;SDS011;4484;48.928;10.066;2024-01-07T05:00:43;14.67;;;9.80;;
8895;SDS011;4484;48.928;10.066;2024-01-07T05:03:10;17.30;;;11.13;;
8895;SDS011;4484;48.928;10.066;2024-01-07T05:05:37;14.90;;;10.57;;
8895;SDS011;4484;48.928;10.066;2024-01-07T05:08:04;16.07;;;10.80;;
8895;SDS011;4484;48.928;10.066;2024-01-07T05:10:31;12.93;;;9.73;;
8895;SDS011;4484;48.928;10.066;2024-01-07T05:12:58;13.83;;;9.93;;
8895;SDS011;4484;48.928;10.066;2024-01-07T05:15:31;14.40;;;10.37;;
8895;SDS011;4484;48.928;10.066;2024-01-07T05:17:58;15.77;;;11.53;;
8895;SDS011;4484;48.928;10.066;2024-01-07T05:20:25;14.17;;;10.07;;
8895;SDS011;4484;48.928;10.066;2024-01-07T05:22:52;17.67;;;10.53;;
8895;SDS011;4484;48.928;10.066;2024-01-07T05:25:19;13.93;;;10.17;;
8895;SDS011;4484;48.928;10.066;2024-01-07T05:27:46;13.97;;;9.93;;
8895;SDS011;4484;48.928;10.066;2024-01-07T05:30:13;14.77;;;10.70;;
8895;SDS011;4484;48.928;10.066;2024-01-07T05:32:40;13.97;;;10.03;;
8895;SDS011;4484;48.928;10.066;2024-01-07T05:35:07;14.40;;;10.27;;
8895;SDS011;4484;48.928;10.066;2024-01-07T05:37:35;14.07;;;10.10;;
8895;SDS011;4484;48.928;10.066;2024-01-07T05:40:01;13.07;;;9.17;;
8895;SDS011;4484;48.928;10.066;2024-01-07T05:42:28;12.90;;;9.27;;
8895;SDS011;4484;48.928;10.066;2024-01-07T05:44:55;12.27;;;8.63;;
8895;SDS011;4484;48.928;10.066;2024-01-07T05:47:22;12.23;;;9.00;;
8895;SDS011;4484;48.928;10.066;2024-01-07T05:49:49;15.27;;;9.43;;
8895;SDS011;4484;48.928;10.066;2024-01-07T05:52:18;13.43;;;9.17;;
8895;SDS011;4484;48.928;10.066;2024-01-07T05:54:45;12.67;;;9.07;;
8895;SDS011;4484;48.928;10.066;2024-01-07T05:57:12;13.53;;;9.33;;
8895;SDS011;4484;48.928;10.066;2024-01-07T05:59:39;13.83;;;8.57;;
8895;SDS011;4484;48.928;10.066;2024-01-07T06:02:06;12.07;;;8.03;;
8895;SDS011;4484;48.928;10.066;2024-01-07T06:04:33;10.90;;;8.03;;
8895;SDS011;4484;48.928;10.066;2024-01-07T06:07:00;12.03;;;8.10;;
8895;SDS011;4484;48.928;10.066;2024-01-07T06:09:27;10.23;;;7.43;;
8895;SDS011;4484;48.928;10.066;2024-01-07T06:11:54;10.40;;;7.40;;
8895;SDS011;4484;48.928;10.066;2024-01-07T06:14:24;10.50;;;6.77;;
8895;SDS011;4484;48.928;10.066;2024-01-07T06:16:52;7.97;;;6.20;;
8895;SDS011;4484;48.928;10.066;2024-01-07T06:19:18;9.30;;;6.13;;
8895;SDS011;4484;48.928;10.066;2024-01-07T06:21:46;7.87;;;6.57;;
8895;SDS011;4484;48.928;10.066;2024-01-07T06:24:13;9.60;;;6.83;;
8895;SDS011;4484;48.928;10.066;2024-01-07T06:26:39;8.83;;;6.17;;
8895;SDS011;4484;48.928;10.066;2024-01-07T06:29:07;9.33;;;6.70;;
8895;SDS011;4484;48.928;10.066;2024-01-07T06:31:36;12.20;;;8.40;;
8895;SDS011;4484;48.928;10.066;2024-01-07T06:34:03;8.53;;;6.10;;
8895;SDS011;4484;48.928;10.066;2024-01-07T06:36:30;11.20;;;6.70;;
8895;SDS011;4484;48.928;10.066;2024-01-07T06:38:56;9.10;;;6.40;;
8895;SDS011;4484;48.928;10.066;2024-01-07T06:41:23;7.83;;;6.20;;
8895;SDS011;4484;48.928;10.066;2024-01-07T06:43:50;7.17;;;5.40;;
8895;SDS011;4484;48.928;10.066;2024-01-07T06:46:20;6.67;;;5.10;;
8895;SDS011;4484;48.928;10.066;2024-01-07T06:48:47;11.27;;;5.27;;
8895;SDS011;4484;48.928;10.066;2024-01-07T06:51:17;8.27;;;5.00;;
8895;SDS011;4484;48.928;10.066;2024-01-07T06:53:44;7.30;;;5.23;;
8895;SDS011;4484;48.928;10.066;2024-01-07T06:56:11;7.30;;;4.83;;
8895;SDS011;4484;48.928;10.066;2024-01-07T06:58:39;5.97;;;4.77;;
8895;SDS011;4484;48.928;10.066;2024-01-07T07:01:07;8.60;;;5.07;;
8895;SDS011;4484;48.928;10.066;2024-01-07T07:03:34;8.83;;;5.70;;
8895;SDS011;4484;48.928;10.066;2024-01-07T07:06:01;6.43;;;4.70;;
8895;SDS011;4484;48.928;10.066;2024-01-07T07:08:27;7.33;;;4.97;;
8895;SDS011;4484;48.928;10.066;2024-01-07T07:10:54;7.70;;;5.23;;
8895;SDS011;4484;48.928;10.066;2024-01-07T07:13:21;8.10;;;5.03;;
8895;SDS011;4484;48.928;10.066;2024-01-07T07:15:48;7.67;;;4.87;;
8895;SDS011;4484;48.928;10.066;2024-01-07T07:18:15;8.97;;;5.70;;
8895;SDS011;4484;48.928;10.066;2024-01-07T07:20:42;8.53;;;5.60;;
8895;SDS011;4484;48.928;10.066;2024-01-07T07:23:08;6.40;;;5.27;;
8895;SDS011;4484;48.928;10.066;2024-01-07T07:25:35;7.77;;;5.27;;
8895;SDS011;4484;48.928;10.066;2024-01-07T07:28:02;7.27;;;4.90;;
8895;SDS011;4484;48.928;10.066;2024-01-07T07:30:30;7.87;;;5.37;;
8895;SDS011;4484;48.928;10.066;2024-01-07T07:32:58;7.10;;;5.00;;
8895;SDS011;4484;48.928;10.066;2024-01-07T07:35:24;6.43;;;5.20;;
8895;SDS011;4484;48.928;10.066;2024-01-07T07:37:51;7.00;;;5.27;;
8895;SDS011;4484;48.928;10.066;2024-01-07T07:40:18;5.27;;;4.10;;
8895;SDS011;4484;48.928;10.066;2024-01-07T07:42:45;7.40;;;4.70;;
8895;SDS011;4484;48.928;10.066;2024-01-07T07:45:12;6.50;;;4.50;;
8895;SDS011;4484;48.928;10.066;2024-01-07T07:47:39;9.50;;;7.20;;
8895;SDS011;4484;48.928;10.066;2024-01-07T07:50:11;8.97;;;6.13;;
8895;SDS011;4484;48.928;10.066;2024-01-07T07:52:38;8.17;;;5.10;;
8895;SDS011;4484;48.928;10.066;2024-01-07T07:55:07;7.60;;;5.03;;
8895;SDS011;4484;48.928;10.066;2024-01-07T07:57:35;6.53;;;4.70;;
8895;SDS011;4484;48.928;10.066;2024-01-07T08:00:07;8.43;;;5.47;;
8895;SDS011;4484;48.928;10.066;2024-01-07T08:02:34;8.00;;;5.17;;
8895;SDS011;4484;48.928;10.066;2024-01-07T08:05:01;8.77;;;5.50;;
8895;SDS011;4484;48.928;10.066;2024-01-07T08:07:28;8.53;;;5.00;;
8895;SDS011;4484;48.928;10.066;2024-01-07T08:09:55;7.27;;;4.97;;
8895;SDS011;4484;48.928;10.066;2024-01-07T08:12:24;6.53;;;4.10;;
8895;SDS011;4484;48.928;10.066;2024-01-07T08:14:51;6.13;;;4.47;;
8895;SDS011;4484;48.928;10.066;2024-01-07T08:17:17;7.23;;;5.27;;
8895;SDS011;4484;48.928;10.066;2024-01-07T08:19:44;6.33;;;4.97;;
8895;SDS011;4484;48.928;10.066;2024-01-07T08:22:11;8.13;;;5.63;;
8895;SDS011;4484;48.928;10.066;2024-01-07T08:24:39;7.73;;;5.40;;
8895;SDS011;4484;48.928;10.066;2024-01-07T08:27:06;6.87;;;5.50;;
8895;SDS011;4484;48.928;10.066;2024-01-07T08:29:33;8.40;;;6.17;;
8895;SDS011;4484;48.928;10.066;2024-01-07T08:31:59;8.27;;;5.43;;
8895;SDS011;4484;48.928;10.066;2024-01-07T08:34:27;8.47;;;5.70;;
8895;SDS011;4484;48.928;10.066;2024-01-07T08:36:54;7.47;;;4.90;;
8895;SDS011;4484;48.928;10.066;2024-01-07T08:39:21;6.37;;;4.80;;
8895;SDS011;4484;48.928;10.066;2024-01-07T08:41:48;5.50;;;4.30;;
8895;SDS011;4484;48.928;10.066;2024-01-07T08:44:15;6.50;;;4.30;;
8895;SDS011;4484;48.928;10.066;2024-01-07T08:46:42;6.50;;;4.67;;
8895;SDS011;4484;48.928;10.066;2024-01-07T08:49:08;7.57;;;4.97;;
8895;SDS011;4484;48.928;10.066;2024-01-07T08:51:35;8.27;;;5.00;;
8895;SDS011;4484;48.928;10.066;2024-01-07T08:54:02;6.93;;;5.10;;
8895;SDS011;4484;48.928;10.066;2024-01-07T08:56:30;7.13;;;4.97;;
8895;SDS011;4484;48.928;10.066;2024-01-07T08:58:56;7.43;;;5.53;;
8895;SDS011;4484;48.928;10.066;2024-01-07T09:01:25;8.37;;;5.23;;
8895;SDS011;4484;48.928;10.066;2024-01-07T09:03:52;7.27;;;5.20;;
8895;SDS011;4484;48.928;10.066;2024-01-07T09:06:19;9.37;;;5.90;;
8895;SDS011;4484;48.928;10.066;2024-01-07T09:08:46;8.93;;;5.80;;
8895;SDS011;4484;48.928;10.066;2024-01-07T09:11:13;10.57;;;6.50;;
8895;SDS011;4484;48.928;10.066;2024-01-07T09:13:40;8.83;;;6.33;;
8895;SDS011;4484;48.928;10.066;2024-01-07T09:16:09;8.23;;;5.80;;
8895;SDS011;4484;48.928;10.066;2024-01-07T09:18:38;9.93;;;6.33;;
8895;SDS011;4484;48.928;10.066;2024-01-07T09:21:05;8.30;;;5.80;;
8895;SDS011;4484;48.928;10.066;2024-01-07T09:23:32;8.67;;;6.30;;
8895;SDS011;4484;48.928;10.066;2024-01-07T09:26:05;9.47;;;6.20;;
8895;SDS011;4484;48.928;10.066;2024-01-07T09:28:32;9.17;;;6.30;;
8895;SDS011;4484;48.928;10.066;2024-01-07T09:30:59;9.00;;;6.80;;
8895;SDS011;4484;48.928;10.066;2024-01-07T09:33:26;9.90;;;6.27;;
8895;SDS011;4484;48.928;10.066;2024-01-07T09:35:54;7.87;;;5.47;;
8895;SDS011;4484;48.928;10.066;2024-01-07T09:38:31;10.77;;;6.50;;
8895;SDS011;4484;48.928;10.066;2024-01-07T09:40:57;10.17;;;6.47;;
8895;SDS011;4484;48.928;10.066;2024-01-07T09:43:24;8.97;;;5.90;;
8895;SDS011;4484;48.928;10.066;2024-01-07T09:45:55;9.27;;;6.57;;
8895;SDS011;4484;48.928;10.066;2024-01-07T09:48:23;7.40;;;5.03;;
8895;SDS011;4484;48.928;10.066;2024-01-07T09:50:51;5.77;;;4.57;;
8895;SDS011;4484;48.928;10.066;2024-01-07T09:53:19;8.53;;;5.33;;
8895;SDS011;4484;48.928;10.066;2024-01-07T09:55:57;9.43;;;5.30;;
8895;SDS011;4484;48.928;10.066;2024-01-07T09:58:42;8.13;;;5.33;;
8895;SDS011;4484;48.928;10.066;2024-01-07T10:01:09;7.37;;;4.83;;
8895;SDS011;4484;48.928;10.066;2024-01-07T10:03:37;7.30;;;4.70;;
8895;SDS011;4484;48.928;10.066;2024-01-07T10:06:04;7.27;;;4.83;;
8895;SDS011;4484;48.928;10.066;2024-01-07T10:08:32;6.53;;;5.03;;
8895;SDS011;4484;48.928;10.066;2024-01-07T10:10:59;6.80;;;4.60;;
8895;SDS011;4484;48.928;10.066;2024-01-07T10:13:27;7.77;;;5.00;;
8895;SDS011;4484;48.928;10.066;2024-01-07T10:15:54;6.30;;;4.67;;
8895;SDS011;4484;48.928;10.066;2024-01-07T10:18:21;7.70;;;4.67;;
8895;SDS011;4484;48.928;10.066;2024-01-07T10:20:49;7.43;;;5.20;;
8895;SDS011;4484;48.928;10.066;2024-01-07T10:23:18;8.23;;;5.60;;
8895;SDS011;4484;48.928;10.066;2024-01-07T10:25:45;10.40;;;6.70;;
8895;SDS011;4484;48.928;10.066;2024-01-07T10:28:13;8.07;;;6.10;;
8895;SDS011;4484;48.928;10.066;2024-01-07T10:30:48;10.57;;;6.50;;
8895;SDS011;4484;48.928;10.066;2024-01-07T10:33:17;10.27;;;6.77;;
8895;SDS011;4484;48.928;10.066;2024-01-07T10:35:52;11.17;;;6.83;;
8895;SDS011;4484;48.928;10.066;2024-01-07T10:38:23;8.97;;;6.50;;
8895;SDS011;4484;48.928;10.066;2024-01-07T10:40:50;10.13;;;6.57;;
8895;SDS011;4484;48.928;10.066;2024-01-07T10:43:20;9.43;;;6.83;;
8895;SDS011;4484;48.928;10.066;2024-01-07T10:45:48;10.30;;;7.37;;
8895;SDS011;4484;48.928;10.066;2024-01-07T10:48:17;9.23;;;6.37;;
8895;SDS011;4484;48.928;10.066;2024-01-07T10:50:45;10.50;;;6.60;;
8895;SDS011;4484;48.928;10.066;2024-01-07T10:53:20;9.87;;;6.93;;
8895;SDS011;4484;48.928;10.066;2024-01-07T10:55:52;8.73;;;6.50;;
8895;SDS011;4484;48.928;10.066;2024-01-07T10:58:26;9.60;;;6.30;;
8895;SDS011;4484;48.928;10.066;2024-01-07T11:00:53;9.07;;;6.23;;
8895;SDS011;4484;48.928;10.066;2024-01-07T11:03:25;10.00;;;7.10;;
8895;SDS011;4484;48.928;10.066;2024-01-07T11:06:04;9.23;;;6.27;;
8895;SDS011;4484;48.928;10.066;2024-01-07T11:09:02;10.50;;;6.40;;
8895;SDS011;4484;48.928;10.066;2024-01-07T11:11:39;10.17;;;6.87;;
8895;SDS011;4484;48.928;10.066;2024-01-07T11:20:04;8.53;;;6.00;;
8895;SDS011;4484;48.928;10.066;2024-01-07T11:22:32;11.80;;;6.53;;
8895;SDS011;4484;48.928;10.066;2024-01-07T11:25:00;11.60;;;7.47;;
8895;SDS011;4484;48.928;10.066;2024-01-07T11:27:28;10.00;;;7.40;;
8895;SDS011;4484;48.928;10.066;2024-01-07T11:30:07;11.67;;;7.93;;
8895;SDS011;4484;48.928;10.066;2024-01-07T11:32:45;10.53;;;6.73;;
8895;SDS011;4484;48.928;10.066;2024-01-07T11:35:21;8.43;;;6.30;;
8895;SDS011;4484;48.928;10.066;2024-01-07T11:38:25;11.63;;;7.30;;
8895;SDS011;4484;48.928;10.066;2024-01-07T11:40:51;12.90;;;8.13;;
8895;SDS011;4484;48.928;10.066;2024-01-07T11:43:19;10.87;;;7.30;;
8895;SDS011;4484;48.928;10.066;2024-01-07T11:45:46;9.40;;;6.70;;
8895;SDS011;4484;48.928;10.066;2024-01-07T11:48:13;13.03;;;6.97;;
8895;SDS011;4484;48.928;10.066;2024-01-07T11:50:40;13.20;;;8.10;;
8895;SDS011;4484;48.928;10.066;2024-01-07T11:53:12;11.27;;;7.27;;
8895;SDS011;4484;48.928;10.066;2024-01-07T11:55:39;13.60;;;7.23;;
8895;SDS011;4484;48.928;10.066;2024-01-07T11:58:06;11.53;;;6.73;;
8895;SDS011;4484;48.928;10.066;2024-01-07T12:00:33;9.50;;;6.77;;
8895;SDS011;4484;48.928;10.066;2024-01-07T12:03:01;8.90;;;6.63;;
8895;SDS011;4484;48.928;10.066;2024-01-07T12:05:29;11.83;;;7.77;;
8895;SDS011;4484;48.928;10.066;2024-01-07T12:07:56;11.53;;;8.10;;
8895;SDS011;4484;48.928;10.066;2024-01-07T12:10:23;9.93;;;7.17;;
8895;SDS011;4484;48.928;10.066;2024-01-07T12:12:50;12.83;;;8.07;;
8895;SDS011;4484;48.928;10.066;2024-01-07T12:15:19;12.83;;;8.23;;
8895;SDS011;4484;48.928;10.066;2024-01-07T12:17:55;14.13;;;7.90;;
8895;SDS011;4484;48.928;10.066;2024-01-07T12:20:23;11.37;;;7.57;;
8895;SDS011;4484;48.928;10.066;2024-01-07T12:22:51;13.80;;;8.53;;
8895;SDS011;4484;48.928;10.066;2024-01-07T12:25:21;12.90;;;8.13;;
8895;SDS011;4484;48.928;10.066;2024-01-07T12:27:51;12.77;;;8.40;;
8895;SDS011;4484;48.928;10.066;2024-01-07T12:30:20;13.13;;;8.73;;
8895;SDS011;4484;48.928;10.066;2024-01-07T12:32:47;11.83;;;8.30;;
8895;SDS011;4484;48.928;10.066;2024-01-07T12:35:17;12.97;;;8.87;;
8895;SDS011;4484;48.928;10.066;2024-01-07T12:37:45;12.43;;;8.03;;
8895;SDS011;4484;48.928;10.066;2024-01-07T12:40:14;14.80;;;8.77;;
8895;SDS011;4484;48.928;10.066;2024-01-07T12:42:41;16.33;;;8.97;;
8895;SDS011;4484;48.928;10.066;2024-01-07T12:45:12;14.00;;;7.73;;
8895;SDS011;4484;48.928;10.066;2024-01-07T12:47:41;13.20;;;8.83;;
8895;SDS011;4484;48.928;10.066;2024-01-07T12:50:09;12.97;;;8.53;;
8895;SDS011;4484;48.928;10.066;2024-01-07T12:52:37;12.03;;;7.87;;
8895;SDS011;4484;48.928;10.066;2024-01-07T12:55:06;14.77;;;9.03;;
8895;SDS011;4484;48.928;10.066;2024-01-07T12:57:33;12.70;;;8.10;;
8895;SDS011;4484;48.928;10.066;2024-01-07T13:00:01;14.67;;;8.07;;
8895;SDS011;4484;48.928;10.066;2024-01-07T13:02:32;13.97;;;8.77;;
8895;SDS011;4484;48.928;10.066;2024-01-07T13:05:00;11.67;;;8.03;;
8895;SDS011;4484;48.928;10.066;2024-01-07T13:07:27;14.03;;;8.17;;
8895;SDS011;4484;48.928;10.066;2024-01-07T13:09:54;12.80;;;7.83;;
8895;SDS011;4484;48.928;10.066;2024-01-07T13:12:21;13.37;;;8.93;;
8895;SDS011;4484;48.928;10.066;2024-01-07T13:14:52;13.83;;;8.30;;
8895;SDS011;4484;48.928;10.066;2024-01-07T13:17:21;14.70;;;8.17;;
8895;SDS011;4484;48.928;10.066;2024-01-07T13:19:48;11.93;;;8.13;;
8895;SDS011;4484;48.928;10.066;2024-01-07T13:22:15;11.47;;;7.30;;
8895;SDS011;4484;48.928;10.066;2024-01-07T13:24:41;12.13;;;7.50;;
8895;SDS011;4484;48.928;10.066;2024-01-07T13:27:08;11.90;;;7.43;;
8895;SDS011;4484;48.928;10.066;2024-01-07T13:29:35;15.10;;;8.17;;
8895;SDS011;4484;48.928;10.066;2024-01-07T13:32:02;11.93;;;7.93;;
8895;SDS011;4484;48.928;10.066;2024-01-07T13:34:29;12.07;;;7.60;;
8895;SDS011;4484;48.928;10.066;2024-01-07T13:36:56;12.13;;;7.33;;
8895;SDS011;4484;48.928;10.066;2024-01-07T13:39:23;10.83;;;7.10;;
8895;SDS011;4484;48.928;10.066;2024-01-07T13:41:51;11.03;;;7.67;;
8895;SDS011;4484;48.928;10.066;2024-01-07T13:44:17;12.47;;;8.80;;
8895;SDS011;4484;48.928;10.066;2024-01-07T13:46:45;11.50;;;7.47;;
8895;SDS011;4484;48.928;10.066;2024-01-07T13:49:13;11.50;;;8.13;;
8895;SDS011;4484;48.928;10.066;2024-01-07T13:51:40;11.93;;;7.50;;
8895;SDS011;4484;48.928;10.066;2024-01-07T13:54:08;22.90;;;13.27;;
8895;SDS011;4484;48.928;10.066;2024-01-07T13:56:39;12.70;;;8.43;;
8895;SDS011;4484;48.928;10.066;2024-01-07T13:59:10;10.13;;;7.23;;
8895;SDS011;4484;48.928;10.066;2024-01-07T14:01:37;10.10;;;6.90;;
8895;SDS011;4484;48.928;10.066;2024-01-07T14:04:05;11.57;;;7.10;;
8895;SDS011;4484;48.928;10.066;2024-01-07T14:06:32;8.13;;;6.10;;
8895;SDS011;4484;48.928;10.066;2024-01-07T14:08:59;8.90;;;6.60;;
8895;SDS011;4484;48.928;10.066;2024-01-07T14:11:26;13.03;;;7.80;;
8895;SDS011;4484;48.928;10.066;2024-01-07T14:13:54;10.57;;;7.37;;
8895;SDS011;4484;48.928;10.066;2024-01-07T14:16:21;11.07;;;7.57;;
8895;SDS011;4484;48.928;10.066;2024-01-07T14:18:48;9.37;;;7.20;;
8895;SDS011;4484;48.928;10.066;2024-01-07T14:21:15;10.10;;;6.70;;
8895;SDS011;4484;48.928;10.066;2024-01-07T14:23:42;10.20;;;7.77;;
8895;SDS011;4484;48.928;10.066;2024-01-07T14:26:09;10.67;;;7.07;;
8895;SDS011;4484;48.928;10.066;2024-01-07T14:28:36;10.53;;;6.80;;
8895;SDS011;4484;48.928;10.066;2024-01-07T14:31:03;10.37;;;6.63;;
8895;SDS011;4484;48.928;10.066;2024-01-07T14:33:30;10.13;;;7.00;;
8895;SDS011;4484;48.928;10.066;2024-01-07T14:35:57;10.47;;;6.33;;
8895;SDS011;4484;48.928;10.066;2024-01-07T14:38:24;8.70;;;5.80;;
8895;SDS011;4484;48.928;10.066;2024-01-07T14:40:52;8.90;;;6.27;;
8895;SDS011;4484;48.928;10.066;2024-01-07T14:43:18;9.30;;;6.03;;
8895;SDS011;4484;48.928;10.066;2024-01-07T14:45:45;9.73;;;6.50;;
8895;SDS011;4484;48.928;10.066;2024-01-07T14:48:12;8.93;;;6.50;;
8895;SDS011;4484;48.928;10.066;2024-01-07T14:50:40;8.23;;;5.83;;
8895;SDS011;4484;48.928;10.066;2024-01-07T14:53:07;8.63;;;6.37;;
8895;SDS011;4484;48.928;10.066;2024-01-07T14:55:34;8.97;;;6.43;;
8895;SDS011;4484;48.928;10.066;2024-01-07T14:58:01;11.03;;;6.67;;
8895;SDS011;4484;48.928;10.066;2024-01-07T15:00:28;9.73;;;6.47;;